Time;durP1;ratioP1;P1;durP2;ratioP2;P2;SDS_P1;SDS_P2;PMS_P1;PMS_P2;Temp;Humidity;BMP_temperature;BMP_pressure;BME280_temperature;BME280_humidity;BME280_pressure;Samples;Min_cycle;Max_cycle;Signal;HPM_P1;HPM_P2
2021/10/15 00:02:13;;;;;;;17.52;7.55;;;13.50;99.90;;;;;;5004316;28;20057;-75
2021/10/15 00:04:39;;;;;;;18.50;8.43;;;13.40;99.90;;;;;;5004824;28;20073;-75
2021/10/15 00:07:05;;;;;;;20.42;8.35;;;13.40;99.90;;;;;;5004548;28;20077;-73
2021/10/15 00:09:31;;;;;;;23.77;9.13;;;13.30;99.90;;;;;;5002754;28;20046;-72
2021/10/15 00:11:56;;;;;;;23.75;7.80;;;13.30;99.90;;;;;;5004794;28;20030;-74
2021/10/15 00:14:22;;;;;;;20.35;9.60;;;13.30;99.90;;;;;;4987066;28;20030;-73
2021/10/15 00:16:48;;;;;;;17.38;8.05;;;13.30;99.90;;;;;;4986396;28;20037;-74
2021/10/15 00:19:14;;;;;;;21.83;8.57;;;13.30;99.90;;;;;;4986689;28;20038;-76
2021/10/15 00:21:40;;;;;;;21.17;8.13;;;13.20;99.90;;;;;;5004194;28;20069;-73
2021/10/15 00:24:06;;;;;;;15.48;8.07;;;13.30;99.90;;;;;;5004575;28;20422;-72
2021/10/15 00:26:32;;;;;;;18.15;8.48;;;13.30;99.90;;;;;;5004647;28;20086;-73
2021/10/15 00:28:57;;;;;;;19.33;7.53;;;13.20;99.90;;;;;;5004053;28;20034;-75
2021/10/15 00:31:23;;;;;;;19.83;8.50;;;13.20;99.90;;;;;;5004226;28;20390;-73
2021/10/15 00:33:48;;;;;;;19.13;7.47;;;13.20;99.90;;;;;;5003463;28;20049;-72
2021/10/15 00:36:14;;;;;;;18.95;8.10;;;13.20;99.90;;;;;;5003761;28;20093;-74
2021/10/15 00:38:40;;;;;;;17.25;8.80;;;13.20;99.90;;;;;;5004125;28;20030;-73
2021/10/15 00:41:06;;;;;;;21.40;7.60;;;13.20;99.90;;;;;;4987061;28;20034;-74
2021/10/15 00:43:32;;;;;;;15.57;7.45;;;13.20;99.90;;;;;;5003672;28;20034;-74
2021/10/15 00:45:57;;;;;;;12.32;6.03;;;13.20;99.90;;;;;;5005216;28;20031;-73
2021/10/15 00:48:23;;;;;;;13.23;6.57;;;13.20;99.90;;;;;;5007906;28;20031;-73
2021/10/15 00:50:49;;;;;;;21.60;8.60;;;13.10;99.90;;;;;;5006860;28;20057;-74
2021/10/15 00:53:15;;;;;;;30.25;6.90;;;13.20;99.90;;;;;;5007858;28;20080;-75
2021/10/15 00:55:43;;;;;;;12.35;6.43;;;13.20;99.90;;;;;;4990255;28;20117;-74
2021/10/15 00:58:08;;;;;;;16.58;7.50;;;13.20;99.90;;;;;;4989159;28;20030;-75
2021/10/15 01:00:34;;;;;;;14.27;7.65;;;13.20;99.90;;;;;;5007903;28;20033;-71
2021/10/15 01:03:00;;;;;;;16.73;7.68;;;13.20;99.90;;;;;;5007154;28;20054;-72
2021/10/15 01:05:26;;;;;;;14.98;7.60;;;13.20;99.90;;;;;;5006749;28;20101;-75
2021/10/15 01:07:53;;;;;;;18.00;7.65;;;13.20;99.90;;;;;;5007604;28;20079;-75
2021/10/15 01:10:19;;;;;;;16.88;6.88;;;13.20;99.90;;;;;;5007221;28;20068;-74
2021/10/15 01:12:45;;;;;;;18.13;8.32;;;13.20;99.90;;;;;;5006815;28;20113;-74
2021/10/15 01:15:12;;;;;;;26.42;8.18;;;13.20;99.90;;;;;;5012141;28;20030;-74
2021/10/15 01:17:38;;;;;;;14.93;7.28;;;13.20;99.90;;;;;;5014073;28;20035;-76
2021/10/15 01:20:08;;;;;;;16.85;7.45;;;13.20;99.90;;;;;;4989438;28;20023;-75
2021/10/15 01:22:34;;;;;;;17.27;8.05;;;13.20;99.90;;;;;;5005645;28;20053;-74
2021/10/15 01:24:59;;;;;;;19.48;8.13;;;13.20;99.90;;;;;;4997879;28;20030;-73
2021/10/15 01:27:25;;;;;;;25.50;7.85;;;13.20;99.90;;;;;;5026329;28;20033;-74
2021/10/15 01:29:52;;;;;;;20.20;8.88;;;13.20;99.90;;;;;;5026568;28;20482;-73
2021/10/15 01:32:18;;;;;;;13.23;6.55;;;13.20;99.90;;;;;;5026213;28;20081;-76
2021/10/15 01:34:46;;;;;;;18.30;7.88;;;13.20;99.90;;;;;;5008322;28;20022;-73
2021/10/15 01:37:12;;;;;;;16.50;7.63;;;13.20;99.90;;;;;;5026434;28;20485;-75
2021/10/15 01:39:39;;;;;;;22.52;7.82;;;13.20;99.90;;;;;;5026157;28;20029;-77
2021/10/15 01:42:05;;;;;;;13.15;7.28;;;13.20;99.90;;;;;;5008889;28;20160;-73
2021/10/15 01:44:31;;;;;;;15.02;7.85;;;13.20;99.90;;;;;;5026128;28;20143;-70
2021/10/15 01:46:57;;;;;;;19.33;8.70;;;13.30;99.90;;;;;;5025225;28;20997;-72
2021/10/15 01:49:23;;;;;;;26.42;7.40;;;13.20;99.90;;;;;;5025745;28;20045;-75
2021/10/15 01:51:48;;;;;;;15.45;7.18;;;13.20;99.90;;;;;;5025647;28;20087;-77
2021/10/15 01:54:14;;;;;;;17.05;7.20;;;13.20;99.90;;;;;;5025839;28;20048;-73
2021/10/15 01:56:39;;;;;;;17.70;7.40;;;13.20;99.90;;;;;;5025717;28;20080;-72
2021/10/15 01:59:06;;;;;;;11.52;6.65;;;13.20;99.90;;;;;;5026254;28;20028;-74
2021/10/15 02:01:32;;;;;;;14.10;7.25;;;13.20;99.90;;;;;;5025577;28;20037;-74
2021/10/15 02:03:58;;;;;;;12.63;6.82;;;13.20;99.90;;;;;;5025903;28;20068;-73
2021/10/15 02:06:24;;;;;;;21.08;7.53;;;13.20;99.90;;;;;;5007562;28;20085;-74
2021/10/15 02:08:50;;;;;;;21.55;6.50;;;13.20;99.90;;;;;;5025614;28;20033;-76
2021/10/15 02:11:15;;;;;;;21.67;7.80;;;13.30;99.90;;;;;;5025704;28;20029;-74
2021/10/15 02:13:41;;;;;;;14.45;7.47;;;13.20;99.90;;;;;;5025215;28;20037;-74
2021/10/15 02:16:07;;;;;;;13.73;5.97;;;13.20;99.90;;;;;;5026089;28;20029;-75
2021/10/15 02:18:33;;;;;;;18.25;6.35;;;13.30;99.90;;;;;;5007974;28;20168;-73
2021/10/15 02:20:59;;;;;;;14.40;6.22;;;13.20;99.90;;;;;;5024655;28;20480;-73
2021/10/15 02:23:24;;;;;;;12.82;6.28;;;13.30;99.90;;;;;;5025388;28;20100;-73
2021/10/15 02:25:50;;;;;;;17.30;5.93;;;13.30;99.90;;;;;;5025639;28;20033;-75
2021/10/15 02:28:16;;;;;;;18.45;7.28;;;13.30;99.90;;;;;;5025186;28;20030;-72
2021/10/15 02:30:41;;;;;;;12.82;6.75;;;13.30;99.90;;;;;;5025137;28;20046;-74
2021/10/15 02:33:07;;;;;;;15.45;6.15;;;13.30;99.90;;;;;;5007988;28;20098;-74
2021/10/15 02:35:33;;;;;;;12.38;5.65;;;13.30;99.90;;;;;;5024507;28;20060;-73
2021/10/15 02:38:01;;;;;;;11.10;5.72;;;13.30;99.90;;;;;;5025351;28;20030;-74
2021/10/15 02:40:28;;;;;;;17.85;5.78;;;13.30;99.90;;;;;;5025453;28;20045;-72
2021/10/15 02:42:54;;;;;;;11.82;5.38;;;13.30;99.90;;;;;;5006834;28;20026;-76
2021/10/15 02:45:20;;;;;;;18.10;5.40;;;13.30;99.90;;;;;;5025317;28;20029;-73
2021/10/15 02:47:46;;;;;;;12.48;5.85;;;13.30;99.90;;;;;;5025134;28;20026;-73
2021/10/15 02:50:11;;;;;;;10.50;5.20;;;13.30;99.90;;;;;;5024838;28;20038;-73
2021/10/15 02:52:37;;;;;;;12.98;5.70;;;13.30;99.90;;;;;;5025230;28;20050;-74
2021/10/15 02:55:04;;;;;;;12.07;5.25;;;13.30;99.90;;;;;;5024564;28;20034;-72
2021/10/15 02:57:29;;;;;;;14.57;7.30;;;13.30;99.90;;;;;;5024330;28;20041;-72
2021/10/15 02:59:55;;;;;;;8.05;4.55;;;13.30;99.90;;;;;;5024823;28;20030;-74
2021/10/15 03:02:20;;;;;;;12.35;5.07;;;13.30;99.90;;;;;;5007092;28;20033;-77
2021/10/15 03:04:46;;;;;;;17.13;5.90;;;13.30;99.90;;;;;;5007155;28;20470;-75
2021/10/15 03:07:12;;;;;;;11.10;5.03;;;13.20;99.90;;;;;;5007030;28;20037;-74
2021/10/15 03:09:38;;;;;;;11.55;5.68;;;13.20;99.90;;;;;;5024337;28;20180;-74
2021/10/15 03:12:05;;;;;;;18.17;5.38;;;13.20;99.90;;;;;;5024443;28;20026;-73
2021/10/15 03:14:30;;;;;;;16.23;5.03;;;13.20;99.90;;;;;;5024742;28;20030;-74
2021/10/15 03:16:56;;;;;;;12.20;5.72;;;13.20;99.90;;;;;;5024268;28;20033;-73
2021/10/15 03:19:21;;;;;;;14.50;6.07;;;13.20;99.90;;;;;;5024584;28;20073;-74
2021/10/15 03:21:47;;;;;;;11.75;5.82;;;13.20;99.90;;;;;;5023725;28;20049;-75
2021/10/15 03:24:13;;;;;;;11.15;5.07;;;13.20;99.90;;;;;;5025081;28;20517;-74
2021/10/15 03:26:38;;;;;;;14.30;6.15;;;13.10;99.90;;;;;;5024812;28;20026;-76
2021/10/15 03:29:04;;;;;;;10.95;5.97;;;13.10;99.90;;;;;;5024690;28;20037;-74
2021/10/15 03:31:30;;;;;;;18.15;7.65;;;13.10;99.90;;;;;;5024206;28;20026;-74
2021/10/15 03:33:55;;;;;;;18.20;6.30;;;13.10;99.90;;;;;;5024415;28;20524;-74
2021/10/15 03:36:21;;;;;;;20.08;8.23;;;13.00;99.90;;;;;;5024467;28;20045;-74
2021/10/15 03:38:47;;;;;;;16.58;7.15;;;13.00;99.90;;;;;;5006243;28;20033;-73
2021/10/15 03:41:12;;;;;;;13.05;6.03;;;13.00;99.90;;;;;;5024417;28;20026;-75
2021/10/15 03:43:38;;;;;;;18.83;7.85;;;13.00;99.90;;;;;;5024527;28;20032;-75
2021/10/15 03:46:03;;;;;;;18.17;8.00;;;13.00;99.90;;;;;;5023769;28;20061;-73
2021/10/15 03:48:29;;;;;;;20.63;6.97;;;13.00;99.90;;;;;;5024383;28;20049;-73
2021/10/15 03:50:54;;;;;;;17.48;7.80;;;13.00;99.90;;;;;;5024244;28;20046;-73
2021/10/15 03:53:20;;;;;;;16.40;7.03;;;12.90;99.90;;;;;;5023623;28;20026;-72
2021/10/15 03:55:45;;;;;;;16.60;7.20;;;12.90;99.90;;;;;;5024315;28;20034;-74
2021/10/15 03:58:11;;;;;;;14.57;7.47;;;12.90;99.90;;;;;;5024456;28;20048;-73
2021/10/15 04:00:37;;;;;;;11.52;6.72;;;12.90;99.90;;;;;;5024283;28;20125;-71
2021/10/15 04:03:03;;;;;;;16.00;7.32;;;12.90;99.90;;;;;;5024257;28;20083;-74
2021/10/15 04:05:29;;;;;;;16.02;7.68;;;12.80;99.90;;;;;;5024211;28;20035;-72
2021/10/15 04:07:54;;;;;;;18.80;7.45;;;12.80;99.90;;;;;;5023536;28;20030;-73
2021/10/15 04:10:20;;;;;;;24.63;8.07;;;12.80;99.90;;;;;;5023856;28;20433;-76
2021/10/15 04:12:46;;;;;;;19.05;7.68;;;12.80;99.90;;;;;;5024138;28;20058;-74
2021/10/15 04:15:12;;;;;;;14.32;6.63;;;12.80;99.90;;;;;;5024145;28;20088;-75
2021/10/15 04:17:38;;;;;;;17.80;7.75;;;12.80;99.90;;;;;;5024059;28;20029;-76
2021/10/15 04:20:06;;;;;;;18.52;7.63;;;12.80;99.90;;;;;;5025035;28;20030;-73
2021/10/15 04:22:31;;;;;;;20.27;7.68;;;12.80;99.90;;;;;;5027183;28;20046;-73
2021/10/15 04:24:57;;;;;;;15.57;6.50;;;12.80;99.90;;;;;;5027759;28;20026;-73
2021/10/15 04:27:22;;;;;;;19.98;7.15;;;12.80;99.90;;;;;;5027597;28;20049;-73
2021/10/15 04:29:48;;;;;;;12.88;7.03;;;12.80;99.90;;;;;;5027225;28;20065;-73
2021/10/15 04:32:14;;;;;;;12.02;6.32;;;12.80;99.90;;;;;;5027081;28;20076;-73
2021/10/15 04:34:40;;;;;;;15.23;7.50;;;12.90;99.90;;;;;;5026804;28;20026;-75
2021/10/15 04:37:05;;;;;;;12.73;5.80;;;12.90;99.90;;;;;;5027433;28;20056;-74
2021/10/15 04:39:31;;;;;;;13.65;5.88;;;12.90;99.90;;;;;;5027275;28;20097;-73
2021/10/15 04:41:57;;;;;;;19.40;7.00;;;12.90;99.90;;;;;;5027219;28;20084;-75
2021/10/15 04:44:22;;;;;;;16.42;7.68;;;12.90;99.90;;;;;;5027288;28;20030;-73
2021/10/15 04:46:48;;;;;;;19.95;7.65;;;12.90;99.90;;;;;;5027516;28;20363;-73
2021/10/15 04:49:13;;;;;;;16.15;7.32;;;12.90;99.90;;;;;;5027201;28;20046;-74
2021/10/15 04:51:39;;;;;;;22.00;7.35;;;12.90;99.90;;;;;;5027260;28;20052;-74
2021/10/15 04:54:05;;;;;;;17.65;7.78;;;13.00;99.90;;;;;;5027092;28;20034;-76
2021/10/15 04:56:30;;;;;;;13.90;6.97;;;12.90;99.90;;;;;;5026867;28;20069;-72
2021/10/15 04:58:57;;;;;;;17.23;7.72;;;12.90;99.90;;;;;;5019310;28;20034;-74
2021/10/15 05:01:22;;;;;;;18.05;7.47;;;13.00;99.90;;;;;;5013306;28;20109;-73
2021/10/15 05:03:48;;;;;;;12.75;6.57;;;13.00;99.90;;;;;;5006636;28;20451;-73
2021/10/15 05:06:19;;;;;;;14.23;7.40;;;12.90;99.90;;;;;;4992045;28;20114;-75
2021/10/15 05:11:40;;;;;;;10.57;5.75;;;12.90;99.90;;;;;;4977520;28;20053;-74
2021/10/15 05:14:06;;;;;;;14.90;6.30;;;12.90;99.90;;;;;;5007244;28;20026;-74
2021/10/15 05:16:32;;;;;;;13.48;6.40;;;13.00;99.90;;;;;;5014486;28;20038;-74
2021/10/15 05:18:58;;;;;;;17.58;6.82;;;13.00;99.90;;;;;;5021790;28;20034;-73
2021/10/15 05:21:23;;;;;;;19.98;6.45;;;12.90;99.90;;;;;;5016801;28;20355;-71
2021/10/15 05:23:49;;;;;;;18.73;7.38;;;12.90;99.90;;;;;;5011725;28;20041;-73
2021/10/15 05:26:15;;;;;;;16.70;8.13;;;12.90;99.90;;;;;;5011874;28;20098;-74
2021/10/15 05:28:40;;;;;;;9.50;5.10;;;12.90;99.90;;;;;;4989708;28;20033;-73
2021/10/15 05:31:06;;;;;;;16.67;6.93;;;12.90;99.90;;;;;;5005574;28;20068;-72
2021/10/15 05:33:31;;;;;;;19.08;6.82;;;12.90;99.90;;;;;;5013361;28;20470;-73
2021/10/15 05:35:57;;;;;;;12.25;6.60;;;12.90;99.90;;;;;;5010144;28;20057;-71
2021/10/15 05:38:22;;;;;;;18.48;7.18;;;12.90;99.90;;;;;;5018979;28;20042;-72
2021/10/15 05:40:49;;;;;;;14.60;6.63;;;12.90;99.90;;;;;;5026134;28;20048;-71
2021/10/15 05:43:15;;;;;;;14.20;6.28;;;12.90;99.90;;;;;;5025385;28;20048;-71
2021/10/15 05:45:40;;;;;;;19.23;7.97;;;12.90;99.90;;;;;;5025083;28;20034;-74
2021/10/15 05:48:06;;;;;;;20.45;6.10;;;12.90;99.90;;;;;;5026450;28;20168;-74
2021/10/15 05:50:32;;;;;;;13.55;6.60;;;12.90;99.90;;;;;;5006898;28;20053;-76
2021/10/15 05:53:06;;;;;;;15.27;5.70;;;12.90;99.90;;;;;;5024149;28;20749;-74
2021/10/15 06:00:44;;;;;;;11.95;6.38;;;12.90;99.90;;;;;;5006538;28;20061;-76
2021/10/15 06:03:10;;;;;;;14.15;6.15;;;12.80;99.90;;;;;;5011250;28;20025;-75
2021/10/15 06:16:17;;;;;;;14.02;7.60;;;12.80;99.90;;;;;;5006300;28;20037;-75
2021/10/15 06:18:51;;;;;;;19.80;6.97;;;12.70;99.90;;;;;;5006900;28;20359;-75
2021/10/15 06:21:17;;;;;;;12.10;6.43;;;12.60;99.90;;;;;;5011586;28;20083;-75
2021/10/15 06:23:43;;;;;;;14.07;7.25;;;12.60;99.90;;;;;;5006020;28;20050;-74
2021/10/15 06:26:08;;;;;;;15.30;6.85;;;12.70;99.90;;;;;;5005625;28;20030;-74
2021/10/15 06:28:34;;;;;;;14.07;6.45;;;12.60;99.90;;;;;;5005473;28;20470;-75
2021/10/15 06:31:00;;;;;;;21.95;7.53;;;12.50;99.90;;;;;;5014301;28;20077;-75
2021/10/15 06:33:25;;;;;;;16.02;7.40;;;12.40;99.90;;;;;;4991904;28;20397;-75
2021/10/15 06:35:51;;;;;;;20.95;6.85;;;12.30;99.90;;;;;;5005531;28;20097;-75
2021/10/15 06:38:16;;;;;;;19.98;8.68;;;12.40;99.90;;;;;;5006406;28;20026;-76
2021/10/15 06:40:42;;;;;;;19.05;8.32;;;12.20;99.90;;;;;;5019858;28;20065;-75
2021/10/15 06:43:09;;;;;;;19.17;8.13;;;12.20;99.90;;;;;;5017740;28;20049;-77
2021/10/15 06:45:36;;;;;;;15.73;8.07;;;12.20;99.90;;;;;;5025429;28;20390;-73
2021/10/15 06:48:05;;;;;;;5.40;2.42;;;12.10;99.90;;;;;;5024346;28;20034;-73
2021/10/15 06:50:31;;;;;;;4.35;2.00;;;12.00;99.90;;;;;;5022827;28;20040;-74
2021/10/15 06:52:57;;;;;;;0.65;0.52;;;11.80;99.90;;;;;;5023590;28;20054;-74
2021/10/15 06:55:23;;;;;;;0.82;0.55;;;11.60;99.90;;;;;;5016105;28;20034;-73
2021/10/15 06:57:50;;;;;;;0.85;0.40;;;11.50;99.90;;;;;;4987529;28;20402;-77
2021/10/15 07:00:17;;;;;;;5.82;0.73;;;11.40;99.90;;;;;;5005796;28;20031;-75
2021/10/15 07:02:44;;;;;;;1.58;0.70;;;11.30;99.90;;;;;;5011407;28;20042;-76
2021/10/15 07:05:11;;;;;;;2.20;0.20;;;11.30;99.90;;;;;;4987451;28;20030;-75
2021/10/15 07:07:37;;;;;;;5.47;1.08;;;11.20;99.90;;;;;;5004126;28;20041;-75
2021/10/15 07:10:07;;;;;;;5.82;0.63;;;11.20;99.90;;;;;;4995079;28;20040;-74
2021/10/15 07:12:40;;;;;;;2.72;0.98;;;11.20;99.90;;;;;;5015048;28;20076;-74
2021/10/15 07:15:07;;;;;;;2.17;0.53;;;11.20;99.90;;;;;;5021477;28;20132;-76
2021/10/15 07:17:33;;;;;;;2.13;0.73;;;11.10;99.90;;;;;;5015833;28;20096;-76
2021/10/15 07:19:59;;;;;;;1.33;0.32;;;11.10;99.90;;;;;;5023901;28;20085;-74
2021/10/15 07:22:25;;;;;;;4.20;0.57;;;11.10;99.90;;;;;;5023319;28;20072;-74
2021/10/15 07:24:51;;;;;;;1.88;0.40;;;11.00;99.90;;;;;;5024076;28;20035;-75
2021/10/15 07:27:20;;;;;;;2.92;0.40;;;11.00;99.90;;;;;;5007090;28;20048;-76
2021/10/15 07:29:52;;;;;;;3.55;0.85;;;11.10;99.90;;;;;;5006265;28;20041;-75
2021/10/15 07:32:19;;;;;;;1.98;0.47;;;11.00;99.90;;;;;;5006778;28;20037;-76
2021/10/15 07:34:46;;;;;;;4.25;0.60;;;11.00;99.90;;;;;;5024694;28;20022;-75
2021/10/15 07:37:12;;;;;;;0.75;0.50;;;11.00;99.90;;;;;;5006297;28;20026;-76
2021/10/15 07:39:39;;;;;;;3.42;0.63;;;10.90;99.90;;;;;;5019594;28;20026;-74
2021/10/15 07:42:05;;;;;;;0.55;0.30;;;10.90;99.90;;;;;;5023482;28;20407;-75
2021/10/15 07:44:32;;;;;;;1.35;0.47;;;10.90;99.90;;;;;;5016911;28;20042;-76
2021/10/15 07:46:58;;;;;;;0.13;0.13;;;10.90;99.90;;;;;;5023377;28;20030;-75
2021/10/15 07:49:24;;;;;;;0.47;0.25;;;10.80;99.90;;;;;;5005857;28;20034;-75
2021/10/15 07:51:50;;;;;;;2.65;0.32;;;10.70;99.90;;;;;;5005949;28;20094;-76
2021/10/15 07:54:16;;;;;;;0.00;0.00;;;10.70;99.90;;;;;;4999536;28;20049;-77
2021/10/15 07:56:47;;;;;;;0.28;0.25;;;10.70;99.90;;;;;;5026420;28;20036;-73
2021/10/15 07:59:15;;;;;;;1.38;0.22;;;10.70;99.90;;;;;;5027218;28;20034;-76
2021/10/15 08:01:41;;;;;;;1.25;0.32;;;10.70;99.90;;;;;;5018627;28;20474;-75
2021/10/15 08:04:07;;;;;;;3.33;0.40;;;10.80;99.90;;;;;;5007465;28;20030;-75
2021/10/15 08:06:34;;;;;;;0.50;0.43;;;10.70;99.90;;;;;;4990342;28;20081;-75
2021/10/15 08:08:59;;;;;;;4.75;0.68;;;10.70;99.90;;;;;;5008098;28;20747;-75
2021/10/15 08:11:25;;;;;;;6.97;2.03;;;10.80;99.90;;;;;;5008939;28;20049;-75
2021/10/15 08:13:51;;;;;;;7.43;3.08;;;10.70;99.90;;;;;;4993789;28;20463;-76
2021/10/15 08:16:19;;;;;;;6.53;3.35;;;10.80;99.90;;;;;;4998311;28;20026;-78
2021/10/15 08:18:47;;;;;;;14.48;2.13;;;10.70;99.90;;;;;;5024058;28;20033;-76
2021/10/15 08:46:38;;;;;;;2.63;0.77;;;10.70;99.90;;;;;;2565373;26;22602;-76
2021/10/15 08:49:04;;;;;;;1.42;0.55;;;10.70;99.90;;;;;;5005414;28;20093;-75
2021/10/15 08:51:30;;;;;;;1.25;0.52;;;10.60;99.90;;;;;;4995548;28;20026;-75
2021/10/15 08:54:04;;;;;;;0.30;0.30;;;10.50;99.90;;;;;;5026389;28;20902;-77
2021/10/15 08:56:31;;;;;;;9.68;0.50;;;10.40;99.90;;;;;;5026857;28;20036;-76
2021/10/15 08:59:01;;;;;;;1.45;0.25;;;10.30;99.90;;;;;;5026246;28;20030;-76
2021/10/15 09:01:29;;;;;;;7.32;0.90;;;10.30;99.90;;;;;;5024650;28;20113;-76
2021/10/15 09:04:06;;;;;;;1.15;0.70;;;10.20;99.90;;;;;;5016306;28;20494;-75
2021/10/15 09:06:38;;;;;;;4.65;0.75;;;10.10;99.90;;;;;;5003165;28;20097;-76
2021/10/15 09:09:04;;;;;;;1.17;0.63;;;10.00;99.90;;;;;;5006265;28;20101;-76
2021/10/15 09:11:47;;;;;;;3.05;1.27;;;10.00;99.90;;;;;;5006678;28;20042;-75
2021/10/15 09:14:19;;;;;;;3.10;0.75;;;10.00;99.90;;;;;;5019232;28;20026;-75
2021/10/15 09:16:59;;;;;;;4.00;0.75;;;10.00;99.90;;;;;;5025839;28;20026;-74
2021/10/15 09:19:46;;;;;;;0.77;0.45;;;10.00;99.90;;;;;;5006724;28;20109;-75
2021/10/15 09:22:19;;;;;;;2.75;0.63;;;10.00;99.90;;;;;;5025267;28;20049;-74
2021/10/15 09:24:50;;;;;;;5.18;0.95;;;10.20;99.90;;;;;;5024603;28;20489;-75
2021/10/15 09:27:21;;;;;;;0.00;0.00;;;10.40;99.90;;;;;;5007733;28;20018;-75
2021/10/15 09:29:52;;;;;;;0.65;0.40;;;10.60;99.90;;;;;;5007486;28;20105;-75
2021/10/15 09:32:22;;;;;;;3.33;0.93;;;10.90;99.90;;;;;;5025796;28;20045;-74
2021/10/15 09:34:48;;;;;;;2.22;0.43;;;11.10;99.90;;;;;;5025356;28;20017;-75
2021/10/15 09:37:22;;;;;;;2.63;0.70;;;11.40;99.90;;;;;;5025469;28;20036;-74
2021/10/15 09:39:48;;;;;;;;;;;11.60;99.90;;;;;;5008345;28;20367;-75
2021/10/15 09:42:22;;;;;;;0.32;0.32;;;11.70;99.90;;;;;;5025273;28;19928;-74
2021/10/15 09:44:47;;;;;;;1.65;0.40;;;12.00;99.90;;;;;;4997956;28;20031;-76
2021/10/15 09:47:24;;;;;;;0.47;0.22;;;12.20;99.90;;;;;;5006220;28;20084;-73
2021/10/15 09:49:56;;;;;;;9.85;0.70;;;12.20;99.90;;;;;;5005698;28;20038;-75
2021/10/15 09:52:49;;;;;;;1.90;0.73;;;12.20;99.90;;;;;;5005607;28;20023;-74
2021/10/15 09:55:31;;;;;;;3.35;0.65;;;12.10;99.90;;;;;;5005567;28;20026;-74
2021/10/15 09:58:09;;;;;;;3.05;0.60;;;11.90;99.90;;;;;;5005412;28;20065;-74
2021/10/15 10:00:36;;;;;;;4.72;1.30;;;12.00;99.90;;;;;;5005714;28;20471;-73
2021/10/15 10:03:02;;;;;;;1.13;0.70;;;12.20;99.90;;;;;;5005623;28;20324;-73
2021/10/15 10:05:30;;;;;;;10.45;1.20;;;12.30;99.90;;;;;;5005735;28;20026;-73
2021/10/15 10:07:57;;;;;;;23.30;1.38;;;12.30;99.90;;;;;;5001347;28;20541;-74
2021/10/15 10:10:36;;;;;;;5.97;1.00;;;12.30;99.90;;;;;;4983858;28;20038;-71
2021/10/15 10:13:03;;;;;;;7.68;0.90;;;12.40;99.90;;;;;;4999475;28;20116;-71
2021/10/15 10:15:35;;;;;;;10.60;1.10;;;12.50;99.90;;;;;;4994484;28;20498;-74
2021/10/15 10:21:01;;;;;;;10.30;1.13;;;12.90;99.90;;;;;;4990718;28;20069;-76
2021/10/15 10:23:37;;;;;;;10.18;1.60;;;13.10;99.90;;;;;;4994695;28;20026;-75
2021/10/15 10:26:08;;;;;;;1.20;0.70;;;13.10;99.90;;;;;;5002792;28;20070;-75
2021/10/15 10:28:35;;;;;;;4.57;0.80;;;13.00;99.90;;;;;;4996707;28;20034;-74
2021/10/15 10:31:18;;;;;;;10.27;0.80;;;13.00;99.90;;;;;;4988067;28;20042;-73
2021/10/15 10:33:56;;;;;;;2.97;0.73;;;12.90;99.90;;;;;;5002569;28;20030;-74
2021/10/15 10:36:24;;;;;;;7.18;0.93;;;12.90;99.90;;;;;;5000794;28;20121;-74
2021/10/15 10:38:50;;;;;;;4.93;0.75;;;13.10;99.90;;;;;;4987654;28;20042;-75
2021/10/15 10:41:24;;;;;;;5.57;1.00;;;13.30;99.90;;;;;;4985896;28;20031;-74
2021/10/15 10:43:51;;;;;;;;;;;13.50;99.90;;;;;;4986122;28;20387;-73
2021/10/15 10:46:21;;;;;;;8.70;1.38;;;13.70;99.90;;;;;;4985217;28;19906;-73
2021/10/15 10:48:46;;;;;;;12.75;1.38;;;13.70;99.90;;;;;;4985045;28;20103;-73
2021/10/15 10:51:16;;;;;;;2.30;1.30;;;13.50;99.90;;;;;;4991068;28;20034;-73
2021/10/15 10:53:57;;;;;;;4.97;1.60;;;13.50;99.90;;;;;;4995511;28;20062;-73
2021/10/15 10:56:43;;;;;;;11.57;1.33;;;13.70;99.90;;;;;;4985697;28;20039;-72
2021/10/15 11:01:48;;;;;;;19.73;2.00;;;14.00;99.90;;;;;;4999273;28;20035;-72
2021/10/15 11:04:35;;;;;;;6.85;1.27;;;14.00;99.90;;;;;;4985417;28;20059;-73
2021/10/15 11:07:26;;;;;;;10.60;2.10;;;14.10;99.90;;;;;;4985786;28;20078;-72
2021/10/15 11:09:54;;;;;;;4.68;1.17;;;14.10;99.90;;;;;;4985877;28;21093;-73
2021/10/15 11:12:22;;;;;;;23.20;1.98;;;14.30;99.90;;;;;;4986672;28;20027;-72
2021/10/15 11:15:04;;;;;;;8.60;1.27;;;14.60;99.90;;;;;;4990977;28;20057;-75
2021/10/15 11:17:35;;;;;;;4.65;1.02;;;14.80;99.90;;;;;;4988087;28;20530;-75
2021/10/15 11:20:10;;;;;;;3.10;0.93;;;15.10;99.90;;;;;;4984026;28;20030;-75
2021/10/15 11:22:38;;;;;;;14.95;2.42;;;15.30;99.90;;;;;;4967825;28;20054;-74
2021/10/15 11:25:07;;;;;;;15.45;1.35;;;15.40;99.90;;;;;;4985641;28;20035;-75
2021/10/15 11:27:33;;;;;;;3.85;1.17;;;15.70;99.90;;;;;;4984344;28;20023;-74
2021/10/15 11:30:01;;;;;;;8.30;1.45;;;16.00;99.90;;;;;;4967333;28;20129;-78
2021/10/15 11:32:38;;;;;;;9.93;1.35;;;16.40;99.90;;;;;;4985376;28;20038;-77
2021/10/15 11:35:16;;;;;;;10.55;1.50;;;16.70;99.90;;;;;;4985255;28;20030;-78
2021/10/15 11:37:45;;;;;;;19.80;1.67;;;17.20;99.90;;;;;;4985434;28;20054;-77
2021/10/15 11:40:21;;;;;;;5.30;1.67;;;17.80;99.90;;;;;;4967548;28;20098;-77
2021/10/15 11:42:52;;;;;;;6.72;0.98;;;18.20;99.90;;;;;;4985446;28;20035;-77
2021/10/15 11:45:39;;;;;;;6.22;1.17;;;18.50;99.90;;;;;;4985227;28;20034;-77
2021/10/15 11:48:37;;;;;;;7.78;1.08;;;18.70;99.90;;;;;;4984771;28;20074;-78
2021/10/15 11:51:04;;;;;;;8.40;1.15;;;18.50;99.90;;;;;;4985296;28;20066;-80
2021/10/15 11:53:37;;;;;;;6.70;1.73;;;18.50;99.90;;;;;;4985176;28;20058;-79
2021/10/15 11:56:06;;;;;;;4.40;0.90;;;18.50;99.90;;;;;;4985791;28;20026;-80
2021/10/15 11:58:46;;;;;;;7.45;1.38;;;18.70;99.90;;;;;;4985921;28;20043;-80
2021/10/15 12:01:36;;;;;;;5.05;1.33;;;18.70;99.90;;;;;;4985536;28;20034;-80
2021/10/15 12:04:12;;;;;;;4.53;1.05;;;18.90;99.90;;;;;;4989873;28;20033;-74
2021/10/15 12:06:54;;;;;;;3.40;1.08;;;18.50;99.90;;;;;;5003321;28;20023;-77
2021/10/15 12:09:23;;;;;;;16.67;1.95;;;18.30;99.90;;;;;;5000761;28;20046;-74
2021/10/15 12:11:55;;;;;;;2.92;0.70;;;17.80;99.90;;;;;;5004478;28;20444;-74
2021/10/15 12:14:26;;;;;;;2.47;0.88;;;17.10;99.90;;;;;;5004052;28;20046;-74
2021/10/15 12:17:05;;;;;;;4.35;0.63;;;16.60;99.90;;;;;;5004538;28;20026;-72
2021/10/15 12:19:40;;;;;;;4.72;0.90;;;16.60;99.90;;;;;;4987212;28;20475;-75
2021/10/15 12:22:10;;;;;;;3.63;1.20;;;16.40;99.90;;;;;;4983626;28;20033;-75
2021/10/15 12:24:44;;;;;;;4.30;1.20;;;16.50;99.90;;;;;;4994039;28;20027;-76
2021/10/15 12:27:13;;;;;;;;;;;16.60;99.90;;;;;;4985543;28;20090;-72
2021/10/15 12:29:42;;;;;;;8.18;1.23;;;16.50;99.90;;;;;;4984566;28;19953;-74
2021/10/15 12:32:12;;;;;;;2.47;1.02;;;16.60;99.90;;;;;;4983729;28;20037;-74
2021/10/15 12:34:59;;;;;;;2.65;0.77;;;16.50;99.90;;;;;;4984983;28;20034;-73
2021/10/15 12:37:36;;;;;;;4.10;0.77;;;16.80;99.90;;;;;;4984662;28;20053;-73
2021/10/15 12:40:33;;;;;;;7.97;1.25;;;16.90;99.90;;;;;;4985070;28;20038;-75
2021/10/15 12:43:19;;;;;;;3.03;0.65;;;16.90;99.90;;;;;;4981312;28;20070;-76
2021/10/15 12:45:48;;;;;;;9.10;1.42;;;16.90;99.90;;;;;;4987136;28;20039;-74
2021/10/15 12:48:24;;;;;;;5.57;0.88;;;17.00;99.90;;;;;;4987149;28;20047;-75
2021/10/15 12:51:14;;;;;;;6.05;1.55;;;17.00;99.90;;;;;;4987866;28;20047;-74
2021/10/15 12:53:45;;;;;;;1.63;0.90;;;17.10;99.90;;;;;;4970884;28;20034;-74
2021/10/15 12:56:22;;;;;;;4.20;0.47;;;17.20;99.90;;;;;;4988141;28;20019;-74
2021/10/15 12:59:01;;;;;;;5.68;1.08;;;17.10;99.90;;;;;;4970176;28;20038;-75
2021/10/15 13:01:31;;;;;;;1.50;0.55;;;17.10;99.90;;;;;;5004498;28;20034;-75
2021/10/15 13:04:01;;;;;;;6.20;1.38;;;17.30;99.90;;;;;;4998194;28;20429;-73
2021/10/15 13:06:29;;;;;;;3.22;0.88;;;17.30;99.90;;;;;;4989638;28;20026;-73
2021/10/15 13:08:56;;;;;;;1.85;0.35;;;17.40;99.90;;;;;;4997258;28;20741;-74
2021/10/15 13:11:23;;;;;;;11.57;1.27;;;17.40;99.90;;;;;;5004897;28;20038;-74
2021/10/15 13:13:50;;;;;;;6.38;0.80;;;17.50;99.90;;;;;;4991263;28;20763;-74
2021/10/15 13:16:17;;;;;;;5.75;1.17;;;17.50;99.90;;;;;;4987214;28;20112;-74
2021/10/15 13:18:42;;;;;;;4.05;1.38;;;17.50;99.90;;;;;;4986837;28;20034;-74
2021/10/15 13:21:08;;;;;;;2.42;0.88;;;17.40;99.90;;;;;;4986811;28;20157;-73
2021/10/15 13:23:36;;;;;;;6.07;0.82;;;17.30;99.90;;;;;;4997008;28;20030;-74
2021/10/15 13:26:07;;;;;;;2.35;0.77;;;17.50;99.90;;;;;;5001638;28;20048;-73
2021/10/15 13:28:36;;;;;;;6.10;0.90;;;17.70;99.90;;;;;;5001113;28;20026;-75
2021/10/15 13:31:03;;;;;;;4.63;1.52;;;17.70;99.90;;;;;;5006721;28;20080;-75
2021/10/15 13:33:28;;;;;;;4.15;0.77;;;17.70;99.90;;;;;;5005616;28;20045;-75
2021/10/15 13:35:59;;;;;;;3.17;1.08;;;17.90;99.90;;;;;;4988484;28;20548;-74
2021/10/15 13:38:28;;;;;;;3.40;0.77;;;18.30;99.90;;;;;;4988294;28;20027;-76
2021/10/15 13:43:25;;;;;;;1.65;0.63;;;19.00;99.90;;;;;;5006748;28;20041;-77